Time;durP1;ratioP1;P1;durP2;ratioP2;P2;SDS_P1;SDS_P2;PMS_P1;PMS_P2;Temp;Humidity;BMP_temperature;BMP_pressure;BME280_temperature;BME280_humidity;BME280_pressure;Samples;Min_cycle;Max_cycle;Signal;HPM_P1;HPM_P2
2022/03/06 05:22:33;;;;;;;19.45;7.13;;;;;;;-2.62;71.03;100785.72;5129530;27;20173;-70
2022/03/06 05:24:59;;;;;;;13.25;7.38;;;;;;;-2.62;70.66;100790.94;5111362;28;20050;-70
2022/03/06 05:27:28;;;;;;;14.55;8.15;;;;;;;-2.69;74.33;100794.78;5129699;28;20429;-70
2022/03/06 05:29:54;;;;;;;14.40;7.28;;;;;;;-2.70;75.74;100800.91;5129621;28;20067;-70
2022/03/06 05:32:19;;;;;;;14.93;8.20;;;;;;;-2.81;75.08;100780.56;5126581;22;20071;-72
2022/03/06 05:34:45;;;;;;;13.82;7.30;;;;;;;-2.74;74.87;100799.38;5109623;28;20031;-73
2022/03/06 05:37:10;;;;;;;12.88;7.20;;;;;;;-2.81;74.29;100795.38;5109362;28;20070;-72
2022/03/06 05:39:36;;;;;;;13.63;7.70;;;;;;;-2.77;73.76;100792.56;5109322;28;20063;-72
2022/03/06 05:42:02;;;;;;;16.25;7.57;;;;;;;-2.82;73.68;100801.50;5109403;28;20028;-72
2022/03/06 05:44:28;;;;;;;14.55;8.10;;;;;;;-2.88;73.55;100796.59;5108606;28;20032;-72
2022/03/06 05:46:54;;;;;;;14.10;7.40;;;;;;;-2.81;72.33;100805.81;5109394;28;20039;-74
2022/03/06 05:49:19;;;;;;;12.60;7.07;;;;;;;-2.81;72.37;100798.81;5109308;28;20040;-73
2022/03/06 05:51:45;;;;;;;11.68;7.30;;;;;;;-2.84;73.87;100800.75;5108765;28;20036;-73
2022/03/06 05:54:11;;;;;;;14.15;8.68;;;;;;;-2.88;75.70;100801.81;5107580;28;20040;-73
2022/03/06 05:56:39;;;;;;;12.57;6.57;;;;;;;-2.86;73.99;100807.81;5107848;28;20089;-73
2022/03/06 05:59:05;;;;;;;14.02;7.70;;;;;;;-2.87;74.40;100806.09;5109171;28;20032;-73
2022/03/06 06:01:31;;;;;;;14.45;8.30;;;;;;;-2.87;73.31;100808.72;5108644;28;20043;-73
2022/03/06 06:03:58;;;;;;;16.05;8.00;;;;;;;-2.84;73.08;100814.63;5108594;28;20067;-73
2022/03/06 06:06:25;;;;;;;12.25;7.45;;;;;;;-2.86;74.45;100813.88;5108729;28;20442;-73
2022/03/06 06:08:50;;;;;;;12.40;7.47;;;;;;;-2.85;74.76;100815.56;5108964;28;20380;-73
2022/03/06 06:11:17;;;;;;;15.30;8.00;;;;;;;-2.83;74.57;100818.94;5111154;28;20032;-73
2022/03/06 06:13:43;;;;;;;15.70;8.57;;;;;;;-2.79;75.24;100824.84;5108660;28;20065;-73
2022/03/06 06:16:09;;;;;;;11.88;6.88;;;;;;;-2.84;73.15;100800.75;5108977;28;20067;-73
2022/03/06 06:18:34;;;;;;;15.02;8.10;;;;;;;-2.72;72.43;100809.75;5111920;28;20069;-72
2022/03/06 06:21:00;;;;;;;16.38;8.30;;;;;;;-2.63;72.28;100822.31;5117328;28;20062;-73
2022/03/06 06:23:26;;;;;;;14.32;7.75;;;;;;;-2.64;74.06;100816.28;5117896;28;20500;-73
2022/03/06 06:25:51;;;;;;;13.73;7.78;;;;;;;-2.56;74.51;100818.50;5118294;28;20035;-73
2022/03/06 06:28:17;;;;;;;14.88;7.43;;;;;;;-2.50;73.54;100820.81;5116346;28;20044;-73
2022/03/06 06:30:43;;;;;;;16.15;7.78;;;;;;;-2.44;74.54;100819.66;5116601;28;20070;-74
2022/03/06 06:33:09;;;;;;;15.43;8.05;;;;;;;-2.37;74.21;100821.03;5104251;28;20047;-73
2022/03/06 06:35:35;;;;;;;14.00;7.65;;;;;;;-2.32;75.18;100824.28;5096400;28;20548;-73
2022/03/06 06:38:01;;;;;;;12.45;8.55;;;;;;;-2.28;76.34;100829.25;5095862;28;20055;-73
2022/03/06 06:40:27;;;;;;;15.40;8.35;;;;;;;-2.19;73.31;100820.13;5098082;28;20040;-73
2022/03/06 06:42:53;;;;;;;16.10;8.10;;;;;;;-2.08;74.92;100823.03;5096269;28;20047;-73
2022/03/06 06:45:19;;;;;;;13.20;7.55;;;;;;;-1.95;72.76;100818.03;5099072;28;20032;-73
2022/03/06 06:47:44;;;;;;;14.15;8.10;;;;;;;-1.81;72.94;100825.97;5094519;28;20119;-72
2022/03/06 06:50:10;;;;;;;15.60;8.18;;;;;;;-1.71;73.17;100824.56;5094400;28;20053;-73
2022/03/06 06:52:36;;;;;;;13.55;7.97;;;;;;;-1.53;71.20;100835.81;5092874;28;20054;-72
2022/03/06 06:55:03;;;;;;;13.98;8.52;;;;;;;-1.34;68.94;100827.81;5092983;28;20039;-73
2022/03/06 06:57:29;;;;;;;14.07;7.70;;;;;;;-1.18;70.04;100827.81;5094267;28;20039;-73
2022/03/06 06:59:56;;;;;;;16.13;7.38;;;;;;;-1.06;69.37;100827.13;5092852;28;20032;-73
2022/03/06 07:02:21;;;;;;;11.57;7.45;;;;;;;-0.96;70.33;100832.72;5093788;28;20115;-73
2022/03/06 07:04:47;;;;;;;14.35;7.30;;;;;;;-0.85;68.62;100835.56;5094886;28;20060;-72
2022/03/06 07:07:12;;;;;;;13.60;7.78;;;;;;;-0.66;67.57;100837.97;5094009;28;20050;-73
2022/03/06 07:09:38;;;;;;;13.63;7.38;;;;;;;-0.53;67.03;100840.75;5094416;28;20036;-73
2022/03/06 07:12:05;;;;;;;14.27;7.80;;;;;;;-0.35;66.77;100848.38;5093660;28;20520;-72
2022/03/06 07:14:30;;;;;;;13.82;7.72;;;;;;;-0.18;65.52;100851.81;5093768;28;20658;-72
2022/03/06 07:16:56;;;;;;;12.40;7.53;;;;;;;-0.02;64.31;100849.97;5092526;28;20042;-73
2022/03/06 07:19:22;;;;;;;14.48;8.25;;;;;;;0.00;65.17;100850.72;5093739;28;20435;-73
2022/03/06 07:21:47;;;;;;;11.48;6.95;;;;;;;0.16;64.94;100861.13;5093223;28;20082;-73
2022/03/06 07:24:13;;;;;;;15.25;8.30;;;;;;;0.21;63.25;100852.06;5093640;28;20064;-73
2022/03/06 07:26:38;;;;;;;15.82;8.30;;;;;;;0.33;62.46;100860.97;5093596;28;20596;-73
2022/03/06 07:29:04;;;;;;;14.85;8.35;;;;;;;0.46;62.07;100856.66;5109513;28;20071;-71
2022/03/06 07:31:30;;;;;;;12.95;7.85;;;;;;;0.62;61.96;100853.94;5093319;28;20050;-71
2022/03/06 07:33:55;;;;;;;13.63;7.40;;;;;;;0.79;60.90;100856.34;5093308;28;20043;-72
2022/03/06 07:36:21;;;;;;;12.32;7.88;;;;;;;0.76;60.92;100861.78;5094471;28;20044;-72
2022/03/06 07:38:47;;;;;;;14.65;7.60;;;;;;;1.08;60.74;100861.53;5094187;28;20040;-72
2022/03/06 07:41:12;;;;;;;13.27;7.00;;;;;;;1.26;59.99;100863.00;5092370;28;20028;-71
2022/03/06 07:43:38;;;;;;;15.15;8.30;;;;;;;1.42;58.72;100856.75;5092505;28;20051;-71
2022/03/06 07:46:04;;;;;;;11.00;7.28;;;;;;;1.58;58.43;100858.28;5091453;28;20138;-72
2022/03/06 07:48:30;;;;;;;14.18;7.90;;;;;;;1.67;58.89;100864.69;5093743;28;20062;-70
2022/03/06 07:50:56;;;;;;;11.75;7.43;;;;;;;1.77;59.70;100867.56;5087768;28;20037;-71
2022/03/06 07:53:21;;;;;;;13.63;8.25;;;;;;;1.97;60.54;100859.19;5091183;28;20127;-71
2022/03/06 07:55:47;;;;;;;11.93;7.78;;;;;;;2.05;59.10;100862.16;5091559;28;20119;-71
2022/03/06 07:58:13;;;;;;;16.02;8.73;;;;;;;1.99;57.80;100865.19;5092752;28;20294;-71
2022/03/06 08:00:39;;;;;;;14.35;7.20;;;;;;;2.25;58.12;100870.47;5092504;28;20032;-68
2022/03/06 08:03:04;;;;;;;13.80;7.93;;;;;;;2.38;58.00;100861.63;5091761;28;20024;-69
2022/03/06 08:05:31;;;;;;;12.90;7.43;;;;;;;2.63;56.47;100870.44;5092585;28;20036;-72
2022/03/06 08:07:57;;;;;;;13.93;7.82;;;;;;;2.81;55.64;100870.97;5091494;28;20040;-71
2022/03/06 08:10:22;;;;;;;11.63;7.72;;;;;;;2.82;55.83;100873.47;5092282;28;20039;-71
2022/03/06 08:12:49;;;;;;;12.10;7.32;;;;;;;2.94;55.45;100863.88;5091629;28;20043;-71
2022/03/06 08:15:15;;;;;;;12.75;7.45;;;;;;;3.17;54.79;100870.13;5092544;28;20059;-71
2022/03/06 08:17:41;;;;;;;12.57;6.80;;;;;;;3.15;55.28;100866.75;5092723;28;20112;-70
2022/03/06 08:20:07;;;;;;;15.00;8.43;;;;;;;3.12;55.78;100865.16;5092113;28;20048;-71
2022/03/06 08:22:34;;;;;;;12.13;7.57;;;;;;;3.48;55.62;100859.03;5091626;28;20028;-71
2022/03/06 08:25:00;;;;;;;12.63;7.63;;;;;;;3.34;55.04;100861.84;5092301;28;20024;-71
2022/03/06 08:27:26;;;;;;;12.25;7.55;;;;;;;3.54;54.92;100863.84;5090919;28;20488;-70
2022/03/06 08:29:51;;;;;;;12.93;7.35;;;;;;;3.73;54.51;100863.34;5091904;28;20127;-70
2022/03/06 08:32:17;;;;;;;13.70;8.48;;;;;;;3.75;54.97;100869.31;5091036;28;20512;-70
2022/03/06 08:34:43;;;;;;;14.13;8.82;;;;;;;4.04;53.97;100864.50;5091002;28;20039;-70
2022/03/06 08:37:09;;;;;;;11.85;7.28;;;;;;;3.94;53.62;100867.94;5073609;28;20081;-71
2022/03/06 08:39:35;;;;;;;10.82;7.20;;;;;;;4.44;53.41;100863.25;5092400;28;20443;-72
2022/03/06 08:42:01;;;;;;;11.48;7.03;;;;;;;4.53;52.58;100855.44;5091022;28;20089;-72
2022/03/06 08:44:27;;;;;;;11.18;7.18;;;;;;;4.57;52.27;100862.19;5092522;28;20043;-71
2022/03/06 08:46:52;;;;;;;10.05;7.03;;;;;;;4.66;51.50;100857.97;5091910;28;20055;-71
2022/03/06 08:49:18;;;;;;;11.77;7.65;;;;;;;4.78;51.34;100854.38;5091780;28;20123;-70
2022/03/06 08:51:44;;;;;;;10.60;6.82;;;;;;;4.87;50.79;100860.72;5090874;28;20032;-71
2022/03/06 08:54:10;;;;;;;11.65;7.13;;;;;;;4.75;51.99;100867.78;5091960;28;20035;-71
2022/03/06 08:56:36;;;;;;;11.23;7.30;;;;;;;4.89;50.45;100856.16;5090065;28;20055;-71
2022/03/06 08:59:02;;;;;;;10.95;7.43;;;;;;;5.07;51.01;100854.69;5091863;28;20044;-71
2022/03/06 09:01:27;;;;;;;14.27;7.82;;;;;;;5.24;50.12;100853.34;5091432;28;20028;-71
2022/03/06 09:03:53;;;;;;;12.48;7.72;;;;;;;5.24;50.20;100857.78;5091635;28;20036;-71
2022/03/06 09:06:19;;;;;;;11.55;7.30;;;;;;;5.35;49.35;100855.97;5090108;28;20044;-71
2022/03/06 09:08:45;;;;;;;13.35;7.88;;;;;;;5.36;49.57;100860.28;5091646;28;20044;-71
2022/03/06 09:11:11;;;;;;;9.32;6.40;;;;;;;5.38;48.91;100855.69;5091291;28;20043;-71
2022/03/06 09:13:36;;;;;;;9.48;7.00;;;;;;;5.47;49.20;100853.25;5091622;28;20442;-71
2022/03/06 09:16:03;;;;;;;10.77;7.63;;;;;;;5.68;48.62;100856.78;5091439;28;20123;-71
2022/03/06 09:18:30;;;;;;;10.10;7.00;;;;;;;5.74;49.86;100851.00;5091823;28;20428;-71
2022/03/06 09:20:56;;;;;;;9.55;6.68;;;;;;;6.11;48.33;100851.41;5091839;28;20476;-71
2022/03/06 09:23:22;;;;;;;12.70;7.80;;;;;;;6.01;47.92;100849.69;5091070;28;20063;-71
2022/03/06 09:25:48;;;;;;;11.77;8.00;;;;;;;6.22;47.42;100856.63;5091613;28;20064;-71
2022/03/06 09:28:13;;;;;;;10.52;7.85;;;;;;;6.46;47.40;100858.16;5091962;28;20813;-71
2022/03/06 09:30:39;;;;;;;14.95;8.00;;;;;;;6.56;46.45;100852.91;5091581;28;20044;-72
2022/03/06 09:33:05;;;;;;;10.95;7.45;;;;;;;6.63;46.38;100862.00;5091497;28;20122;-71
2022/03/06 09:35:31;;;;;;;11.10;7.28;;;;;;;6.88;46.38;100853.59;5091691;28;20039;-71
2022/03/06 09:37:57;;;;;;;11.95;8.00;;;;;;;6.80;45.91;100854.28;5091738;28;20361;-72
2022/03/06 09:40:23;;;;;;;12.18;7.75;;;;;;;6.84;47.11;100854.81;5091320;28;20102;-72
2022/03/06 09:42:49;;;;;;;12.57;7.45;;;;;;;7.15;45.11;100847.66;5090018;28;20043;-71
2022/03/06 09:45:16;;;;;;;12.50;7.45;;;;;;;7.62;44.12;100847.84;5091410;28;20094;-71
2022/03/06 09:47:44;;;;;;;12.18;7.75;;;;;;;7.68;42.95;100836.69;5091525;28;20063;-71
2022/03/06 09:50:12;;;;;;;10.88;7.50;;;;;;;7.79;43.24;100844.50;5090290;28;20670;-72
2022/03/06 09:52:38;;;;;;;10.65;7.53;;;;;;;7.70;43.59;100844.53;5090946;28;20619;-71
2022/03/06 09:55:04;;;;;;;12.90;7.75;;;;;;;7.84;43.49;100852.88;5091300;28;20123;-71
2022/03/06 09:57:30;;;;;;;11.20;7.60;;;;;;;7.89;42.74;100845.34;5091491;28;20107;-71
2022/03/06 09:59:55;;;;;;;11.88;8.02;;;;;;;8.26;41.93;100846.38;5091533;28;20178;-71
2022/03/06 10:02:21;;;;;;;10.35;7.60;;;;;;;8.57;41.40;100841.72;5091210;28;20040;-71
2022/03/06 10:04:47;;;;;;;10.90;7.35;;;;;;;8.89;39.46;100842.13;5091471;28;20044;-72
2022/03/06 10:07:15;;;;;;;13.95;8.23;;;;;;;8.89;39.18;100850.09;5090585;28;20036;-71
2022/03/06 10:09:51;;;;;;;12.13;7.43;;;;;;;9.09;38.48;100847.31;5095069;28;20043;-71
2022/03/06 10:12:40;;;;;;;12.45;7.72;;;;;;;9.66;37.29;100839.94;5095073;28;20082;-71
2022/03/06 10:15:07;;;;;;;10.13;6.93;;;;;;;9.84;36.91;100834.56;5095143;28;20040;-71
2022/03/06 10:17:34;;;;;;;11.30;7.60;;;;;;;9.56;38.74;100833.84;5095026;28;20052;-71
2022/03/06 10:20:12;;;;;;;8.60;6.95;;;;;;;10.14;36.12;100838.63;5094955;28;20075;-72
2022/03/06 10:22:45;;;;;;;10.88;6.57;;;;;;;10.05;35.63;100837.75;5093540;28;20115;-72
2022/03/06 10:25:20;;;;;;;9.90;6.63;;;;;;;10.10;35.73;100835.44;5094904;28;20036;-71
2022/03/06 10:27:57;;;;;;;9.32;6.85;;;;;;;10.53;34.11;100853.22;5095265;28;20028;-70
2022/03/06 10:30:33;;;;;;;8.80;6.47;;;;;;;10.82;33.30;100846.69;5094671;28;20032;-69
2022/03/06 10:33:04;;;;;;;11.40;7.10;;;;;;;11.52;32.44;100846.41;5094415;28;20047;-72
2022/03/06 10:35:39;;;;;;;9.88;6.97;;;;;;;10.85;33.01;100841.88;5094664;28;20483;-72
2022/03/06 10:38:21;;;;;;;11.15;6.90;;;;;;;11.07;32.97;100839.63;5094536;28;20036;-72
2022/03/06 10:40:47;;;;;;;10.88;6.95;;;;;;;11.44;32.54;100841.06;5094535;28;20073;-71
2022/03/06 10:43:26;;;;;;;11.52;7.35;;;;;;;10.52;33.39;100848.88;5094388;28;20024;-71
2022/03/06 10:46:06;;;;;;;8.75;6.85;;;;;;;9.69;34.53;100842.28;5095446;28;20124;-72
2022/03/06 10:48:32;;;;;;;11.15;7.00;;;;;;;8.20;36.80;100839.81;5095932;28;20400;-72
2022/03/06 10:50:59;;;;;;;9.05;6.28;;;;;;;8.14;36.53;100843.88;5095004;28;20107;-72
2022/03/06 10:53:26;;;;;;;9.57;6.28;;;;;;;8.10;37.09;100850.47;5094501;28;20050;-72
2022/03/06 10:55:52;;;;;;;10.10;6.65;;;;;;;7.99;37.59;100855.09;5093148;28;20035;-71
2022/03/06 10:58:19;;;;;;;8.93;6.07;;;;;;;7.77;37.35;100843.81;5094373;28;20032;-72
2022/03/06 11:00:46;;;;;;;8.30;6.30;;;;;;;7.12;38.10;100840.00;5094323;28;20028;-71
2022/03/06 11:03:13;;;;;;;7.97;5.90;;;;;;;7.17;37.17;100848.38;5093880;28;20047;-72
2022/03/06 11:05:42;;;;;;;10.15;6.78;;;;;;;6.75;36.61;100845.88;5094113;28;20139;-72
2022/03/06 11:08:08;;;;;;;9.15;5.70;;;;;;;6.59;36.78;100856.16;5094476;28;20048;-72
2022/03/06 11:10:34;;;;;;;7.38;5.00;;;;;;;6.39;37.62;100854.34;5094103;28;20051;-72
2022/03/06 11:13:00;;;;;;;9.95;6.22;;;;;;;6.39;38.26;100846.41;5094240;28;20043;-71
2022/03/06 11:15:26;;;;;;;7.80;5.90;;;;;;;6.52;37.74;100842.59;5095074;28;20118;-71
2022/03/06 11:17:53;;;;;;;7.82;5.90;;;;;;;6.55;37.63;100849.44;5095192;28;20036;-71
2022/03/06 11:20:19;;;;;;;8.25;6.00;;;;;;;6.77;37.60;100848.38;5094863;28;20040;-71
2022/03/06 11:23:02;;;;;;;9.05;6.13;;;;;;;6.88;37.09;100835.06;5093641;28;20472;-72
2022/03/06 11:25:29;;;;;;;8.40;5.60;;;;;;;6.92;37.59;100833.00;5093746;28;20032;-71
2022/03/06 11:28:50;;;;;;;7.88;5.28;;;;;;;6.94;37.55;100838.97;5093809;28;20039;-72
2022/03/06 11:31:17;;;;;;;10.02;5.70;;;;;;;6.95;37.29;100840.66;5088434;28;20040;-71
2022/03/06 11:33:57;;;;;;;10.20;5.82;;;;;;;6.57;38.46;100833.41;5094238;28;20396;-72
2022/03/06 11:36:27;;;;;;;8.73;5.93;;;;;;;6.53;38.58;100840.78;5093970;28;20031;-72
2022/03/06 11:38:54;;;;;;;8.20;6.22;;;;;;;6.52;38.27;100831.19;5094001;28;20035;-72
2022/03/06 11:41:20;;;;;;;8.18;5.38;;;;;;;6.72;37.69;100843.53;5093245;28;20052;-71
2022/03/06 11:43:48;;;;;;;7.05;5.32;;;;;;;6.71;37.97;100830.38;5093116;28;20038;-71
2022/03/06 11:46:19;;;;;;;7.47;5.80;;;;;;;6.73;38.00;100817.88;5093380;28;20531;-72
2022/03/06 11:48:44;;;;;;;7.80;5.47;;;;;;;6.73;38.64;100828.47;5092052;28;20446;-71
2022/03/06 11:51:12;;;;;;;8.68;5.35;;;;;;;6.71;38.42;100825.94;5093218;28;20036;-72
2022/03/06 11:54:02;;;;;;;8.68;6.13;;;;;;;6.69;37.31;100808.50;5092744;28;20027;-70
2022/03/06 11:56:39;;;;;;;7.18;5.50;;;;;;;6.42;38.10;100822.34;5093275;28;20105;-71
2022/03/06 11:59:06;;;;;;;9.20;6.10;;;;;;;6.82;36.54;100811.75;5093168;28;20059;-72
2022/03/06 12:01:43;;;;;;;7.43;5.05;;;;;;;6.92;37.30;100809.16;5092910;28;20724;-71
2022/03/06 12:04:12;;;;;;;7.40;5.30;;;;;;;7.02;37.24;100804.69;5092986;28;20036;-72
2022/03/06 12:06:43;;;;;;;9.85;6.00;;;;;;;8.19;34.49;100802.81;5092952;28;20036;-71
2022/03/06 12:09:11;;;;;;;6.40;5.03;;;;;;;9.40;32.82;100795.50;5092884;28;20036;-71
2022/03/06 12:11:38;;;;;;;7.10;5.10;;;;;;;10.29;31.42;100791.81;5092688;28;20381;-71
2022/03/06 12:14:27;;;;;;;7.15;4.43;;;;;;;11.29;28.77;100785.69;5094111;28;20404;-70
2022/03/06 12:17:06;;;;;;;7.15;5.25;;;;;;;11.74;27.97;100788.88;5092701;28;20489;-70
2022/03/06 12:19:52;;;;;;;6.45;5.05;;;;;;;12.00;28.16;100784.22;5092670;28;20032;-69
2022/03/06 12:22:22;;;;;;;6.22;5.13;;;;;;;11.92;28.59;100770.84;5060495;28;20040;-69
2022/03/06 12:25:04;;;;;;;6.68;5.20;;;;;;;12.91;27.44;100778.38;5092624;28;20084;-70
2022/03/06 12:27:30;;;;;;;9.02;5.47;;;;;;;12.76;27.04;100775.59;5092513;28;20028;-70
2022/03/06 12:29:57;;;;;;;6.82;5.50;;;;;;;13.21;26.00;100782.06;5092352;28;20043;-70
2022/03/06 12:32:26;;;;;;;6.18;5.15;;;;;;;12.42;27.09;100791.13;5092210;28;20036;-70
2022/03/06 12:34:58;;;;;;;6.65;5.20;;;;;;;11.66;28.14;100777.19;5092320;28;20126;-70
2022/03/06 12:37:25;;;;;;;9.05;6.10;;;;;;;12.05;26.95;100773.00;5092205;28;20040;-70
2022/03/06 12:39:50;;;;;;;9.25;5.75;;;;;;;11.51;27.56;100778.03;5092483;28;20032;-70
2022/03/06 12:42:31;;;;;;;6.65;5.13;;;;;;;11.12;28.81;100776.81;5092109;28;20055;-70
2022/03/06 12:44:59;;;;;;;5.80;4.93;;;;;;;10.85;28.44;100771.75;5092432;28;20039;-70
2022/03/06 12:47:26;;;;;;;7.90;5.45;;;;;;;9.70;31.71;100783.59;5091007;28;20036;-72
2022/03/06 12:49:53;;;;;;;7.05;5.50;;;;;;;9.37;31.07;100774.50;5091104;28;20480;-71
2022/03/06 12:52:24;;;;;;;5.90;4.55;;;;;;;9.08;31.76;100771.25;5091606;28;20032;-72
2022/03/06 12:54:50;;;;;;;6.82;5.18;;;;;;;9.00;31.89;100779.09;5092155;28;20063;-70
2022/03/06 12:57:17;;;;;;;7.03;5.38;;;;;;;8.52;32.95;100770.44;5090938;28;20042;-71
2022/03/06 12:59:46;;;;;;;8.27;5.83;;;;;;;8.36;33.15;100768.44;5092263;28;20043;-71
2022/03/06 13:02:15;;;;;;;6.18;5.00;;;;;;;8.69;32.60;100766.16;5091780;28;20053;-70
2022/03/06 13:04:48;;;;;;;7.40;5.50;;;;;;;8.40;33.10;100769.78;5092101;28;20040;-70
2022/03/06 13:07:14;;;;;;;6.97;5.40;;;;;;;8.26;33.15;100769.41;5092035;28;20050;-70
2022/03/06 13:09:39;;;;;;;7.13;5.50;;;;;;;9.31;31.88;100753.00;5092122;28;20040;-71
2022/03/06 13:12:05;;;;;;;8.00;5.68;;;;;;;10.27;30.53;100762.69;5084608;28;20036;-70
2022/03/06 13:14:37;;;;;;;10.38;5.60;;;;;;;11.03;28.33;100753.81;5071846;28;20028;-70
2022/03/06 13:17:08;;;;;;;6.50;4.93;;;;;;;11.56;28.47;100751.69;5071655;28;20067;-70
2022/03/06 13:19:41;;;;;;;6.25;4.70;;;;;;;11.85;27.42;100748.50;5071598;28;20029;-71
2022/03/06 13:22:09;;;;;;;6.53;5.82;;;;;;;12.46;27.02;100747.03;5071178;28;20486;-71
2022/03/06 13:24:39;;;;;;;7.18;5.18;;;;;;;12.91;26.02;100745.44;5071468;28;20030;-71
2022/03/06 13:27:13;;;;;;;5.75;4.80;;;;;;;12.79;26.54;100753.06;5073275;28;20037;-70
2022/03/06 13:29:41;;;;;;;9.00;5.75;;;;;;;12.73;26.11;100759.09;5054924;28;20064;-70
2022/03/06 13:32:07;;;;;;;6.25;5.50;;;;;;;12.52;26.02;100749.00;5070942;28;20425;-71
2022/03/06 13:34:42;;;;;;;6.80;4.53;;;;;;;12.00;27.26;100757.53;5071440;28;20437;-70
2022/03/06 13:37:08;;;;;;;6.95;4.93;;;;;;;12.52;26.34;100749.00;5085785;28;20401;-71
2022/03/06 13:39:34;;;;;;;9.35;5.10;;;;;;;12.37;26.64;100754.22;5091469;28;20036;-70
2022/03/06 13:42:00;;;;;;;7.82;5.38;;;;;;;12.02;27.29;100750.16;5091065;28;20021;-70
2022/03/06 13:44:26;;;;;;;7.15;5.50;;;;;;;12.26;26.58;100745.75;5095747;28;20044;-70
2022/03/06 13:46:52;;;;;;;6.28;4.97;;;;;;;12.31;27.97;100749.56;5095581;28;20047;-70
2022/03/06 13:49:24;;;;;;;5.38;4.63;;;;;;;11.34;28.34;100747.84;5095690;28;20040;-70
2022/03/06 13:52:04;;;;;;;7.50;5.50;;;;;;;11.05;28.31;100722.50;5095206;28;20040;-70
2022/03/06 13:54:35;;;;;;;6.47;4.82;;;;;;;11.02;28.53;100737.97;5094111;28;20035;-70
2022/03/06 13:57:03;;;;;;;6.28;5.25;;;;;;;11.08;28.53;100735.50;5095695;28;20040;-70
2022/03/06 13:59:30;;;;;;;8.27;5.57;;;;;;;10.36;29.72;100736.94;5095437;28;20081;-71
2022/03/06 14:02:10;;;;;;;6.05;5.32;;;;;;;10.37;30.48;100738.63;5082840;28;20470;-70
2022/03/06 14:04:36;;;;;;;6.47;5.07;;;;;;;10.30;29.23;100729.59;5074832;28;20044;-71
2022/03/06 14:07:04;;;;;;;7.85;5.45;;;;;;;10.00;29.96;100745.06;5074796;28;20060;-71
2022/03/06 14:09:32;;;;;;;6.35;5.22;;;;;;;10.07;29.66;100734.59;5074148;28;20036;-70
2022/03/06 14:12:08;;;;;;;7.07;5.03;;;;;;;9.74;30.38;100742.38;5073075;28;20481;-72
2022/03/06 14:14:42;;;;;;;9.13;4.90;;;;;;;9.69;30.29;100736.69;5074797;28;20449;-71
2022/03/06 14:17:12;;;;;;;8.30;5.20;;;;;;;9.15;31.44;100729.78;5074730;28;20041;-70
2022/03/06 14:19:38;;;;;;;6.80;5.43;;;;;;;8.95;31.57;100716.66;5073326;28;20036;-70
2022/03/06 14:22:04;;;;;;;6.65;5.30;;;;;;;9.12;31.22;100732.72;5074231;28;20461;-70
2022/03/06 14:24:30;;;;;;;6.43;4.63;;;;;;;9.04;31.23;100727.34;5074682;28;20032;-70
2022/03/06 14:26:56;;;;;;;7.00;5.55;;;;;;;8.86;30.62;100717.53;5074537;28;20040;-71
2022/03/06 14:29:29;;;;;;;6.93;5.00;;;;;;;8.59;31.56;100730.84;5075395;28;20077;-70
2022/03/06 14:31:57;;;;;;;6.35;4.93;;;;;;;8.07;32.60;100730.50;5074118;28;20039;-70
2022/03/06 14:34:31;;;;;;;6.70;4.95;;;;;;;8.15;32.26;100738.59;5074711;28;20127;-69
2022/03/06 14:36:58;;;;;;;6.85;4.72;;;;;;;8.24;32.58;100732.41;5074517;28;20040;-70
2022/03/06 14:39:25;;;;;;;8.20;5.25;;;;;;;8.48;32.08;100731.06;5074700;28;20060;-70
2022/03/06 14:41:51;;;;;;;7.55;4.88;;;;;;;8.08;32.35;100737.47;5073891;28;20046;-70
2022/03/06 14:44:18;;;;;;;5.63;4.63;;;;;;;8.00;32.45;100734.72;5075156;28;20094;-70
2022/03/06 14:46:45;;;;;;;6.45;5.28;;;;;;;7.73;33.49;100723.06;5075078;28;20106;-70
2022/03/06 14:49:12;;;;;;;7.28;5.20;;;;;;;7.80;33.33;100739.25;5074430;28;20044;-70
2022/03/06 14:51:39;;;;;;;6.55;4.80;;;;;;;7.58;33.18;100737.75;5073563;28;20028;-70
2022/03/06 14:54:07;;;;;;;6.95;5.05;;;;;;;7.74;32.83;100740.66;5074646;28;20112;-71
2022/03/06 14:56:33;;;;;;;6.80;4.60;;;;;;;7.82;33.47;100735.50;5074715;28;20060;-70
2022/03/06 14:59:01;;;;;;;6.53;4.85;;;;;;;7.69;33.39;100740.22;5075033;28;20442;-71
2022/03/06 15:01:28;;;;;;;6.85;5.10;;;;;;;7.36;33.89;100717.69;5073687;28;20041;-70
2022/03/06 15:03:53;;;;;;;7.60;4.97;;;;;;;7.59;33.48;100734.13;5074690;28;20090;-71
2022/03/06 15:06:19;;;;;;;6.20;4.78;;;;;;;7.39;34.23;100735.13;5073491;28;20060;-70
2022/03/06 15:08:45;;;;;;;6.95;5.03;;;;;;;7.47;34.01;100744.03;5074862;28;20154;-70
2022/03/06 15:11:13;;;;;;;5.40;4.60;;;;;;;7.54;33.87;100736.38;5075506;28;20070;-70
2022/03/06 15:13:40;;;;;;;7.70;5.03;;;;;;;7.25;34.84;100734.59;5089972;28;20039;-71
2022/03/06 15:16:06;;;;;;;7.03;4.93;;;;;;;7.32;34.09;100735.69;5072576;28;20119;-71
2022/03/06 15:18:32;;;;;;;7.03;5.05;;;;;;;7.10;34.49;100730.66;5073877;28;20036;-71
2022/03/06 15:20:58;;;;;;;6.50;5.07;;;;;;;7.00;34.91;100735.97;5073420;28;20485;-71
2022/03/06 15:23:23;;;;;;;7.45;5.63;;;;;;;7.12;34.09;100733.19;5073657;28;20489;-71
2022/03/06 15:25:49;;;;;;;7.82;5.38;;;;;;;7.17;34.57;100731.81;5073427;28;20050;-71
2022/03/06 15:28:15;;;;;;;7.45;4.57;;;;;;;7.05;34.10;100732.91;5073362;28;20030;-71
2022/03/06 15:30:42;;;;;;;6.13;4.68;;;;;;;7.06;34.50;100746.00;5073076;28;20028;-71
2022/03/06 15:33:07;;;;;;;7.30;5.10;;;;;;;6.92;34.74;100741.13;5072954;28;20036;-69
2022/03/06 15:35:33;;;;;;;5.63;4.75;;;;;;;6.87;34.55;100743.34;5073086;28;20102;-70
2022/03/06 15:37:59;;;;;;;7.43;5.05;;;;;;;6.89;35.05;100737.91;5073160;28;20047;-71
2022/03/06 15:40:24;;;;;;;7.05;5.43;;;;;;;6.90;34.46;100734.28;5088629;28;20079;-70
2022/03/06 15:42:50;;;;;;;6.80;4.82;;;;;;;6.68;35.53;100736.19;5072588;28;20080;-70
2022/03/06 15:45:16;;;;;;;6.28;5.07;;;;;;;6.85;35.35;100737.34;5073336;28;20032;-70
2022/03/06 15:47:41;;;;;;;7.65;5.40;;;;;;;6.75;35.48;100744.44;5073184;28;20532;-71
2022/03/06 15:50:07;;;;;;;7.63;5.18;;;;;;;6.75;35.36;100741.78;5073038;28;20331;-71
2022/03/06 15:52:33;;;;;;;9.15;5.60;;;;;;;6.80;35.29;100735.09;5072811;28;20513;-70
2022/03/06 15:55:00;;;;;;;6.78;5.10;;;;;;;6.64;35.46;100748.00;5075465;28;20055;-70
2022/03/06 15:57:26;;;;;;;7.85;5.00;;;;;;;6.63;36.28;100743.69;5073510;28;20040;-70
2022/03/06 15:59:52;;;;;;;5.80;4.88;;;;;;;6.64;36.19;100747.19;5074229;28;20024;-70
2022/03/06 16:02:20;;;;;;;6.20;5.05;;;;;;;6.58;35.64;100745.06;5072943;28;20044;-70
2022/03/06 16:04:46;;;;;;;7.45;5.38;;;;;;;6.46;36.46;100752.31;5070796;28;20405;-70
2022/03/06 16:07:12;;;;;;;7.18;5.28;;;;;;;6.46;36.13;100755.78;5072354;28;20044;-70
2022/03/06 16:09:38;;;;;;;7.50;5.43;;;;;;;6.48;35.96;100753.00;5072612;28;20029;-70
2022/03/06 16:12:04;;;;;;;8.23;5.60;;;;;;;6.35;36.51;100755.03;5082535;28;20032;-70
2022/03/06 16:14:30;;;;;;;7.85;5.75;;;;;;;6.29;36.57;100764.34;5092525;28;20509;-70
2022/03/06 16:16:55;;;;;;;5.90;5.10;;;;;;;6.12;36.92;100765.78;5092325;28;20062;-69
2022/03/06 16:19:22;;;;;;;6.45;4.95;;;;;;;6.20;36.90;100760.69;5092649;28;20043;-70
2022/03/06 16:21:48;;;;;;;7.95;5.32;;;;;;;6.15;36.56;100762.06;5091168;28;20040;-69
2022/03/06 16:24:14;;;;;;;7.90;5.28;;;;;;;6.18;36.22;100752.03;5091306;28;20036;-71
2022/03/06 16:26:40;;;;;;;7.10;5.25;;;;;;;6.14;37.08;100757.75;5090917;28;20047;-71
2022/03/06 16:29:06;;;;;;;6.82;5.20;;;;;;;6.18;37.01;100756.50;5092320;28;20036;-70
2022/03/06 16:31:33;;;;;;;7.72;5.15;;;;;;;6.13;36.95;100751.63;5091265;28;20382;-71
2022/03/06 16:33:59;;;;;;;7.97;4.85;;;;;;;6.01;36.51;100741.25;5091974;28;20079;-70
2022/03/06 16:36:27;;;;;;;6.93;4.70;;;;;;;6.05;36.89;100748.78;5092315;28;20500;-71
2022/03/06 16:38:52;;;;;;;6.22;4.70;;;;;;;6.01;36.78;100744.75;5092128;28;20122;-71
2022/03/06 16:41:18;;;;;;;6.03;4.97;;;;;;;5.88;36.79;100757.31;5091815;28;20127;-70
2022/03/06 16:43:44;;;;;;;7.63;5.53;;;;;;;5.82;37.04;100750.72;5091284;28;20036;-71
2022/03/06 16:46:10;;;;;;;6.97;5.50;;;;;;;5.83;37.55;100748.91;5092427;28;20369;-72
2022/03/06 16:48:36;;;;;;;7.97;5.60;;;;;;;5.73;37.96;100748.84;5092774;28;20480;-70
2022/03/06 16:51:05;;;;;;;8.25;5.82;;;;;;;5.68;37.54;100754.53;5092610;28;20059;-69